Time;durP1;ratioP1;P1;durP2;ratioP2;P2;SDS_P1;SDS_P2;PMS_P1;PMS_P2;Temp;Humidity;BMP_temperature;BMP_pressure;BME280_temperature;BME280_humidity;BME280_pressure;Samples;Min_cycle;Max_cycle;Signal;HPM_P1;HPM_P2
2023/09/19 00:00:41;;;;;;;0.00;0.00;;;22.10;99.90;;;;;;5024914;28;20426;-79
2023/09/19 00:03:08;;;;;;;0.00;0.00;;;22.20;99.90;;;;;;4994313;28;20965;-80
2023/09/19 00:05:36;;;;;;;0.00;0.00;;;22.20;99.90;;;;;;5006339;28;21008;-80
2023/09/19 00:08:05;;;;;;;0.00;0.00;;;22.20;99.90;;;;;;4989842;28;20445;-80
2023/09/19 00:10:36;;;;;;;0.00;0.00;;;22.20;99.90;;;;;;5006732;28;21251;-80
2023/09/19 00:13:07;;;;;;;0.00;0.00;;;22.20;99.90;;;;;;5008327;28;20411;-79
2023/09/19 00:15:40;;;;;;;0.00;0.00;;;22.20;99.90;;;;;;5008567;28;20491;-80
2023/09/19 00:18:08;;;;;;;0.00;0.00;;;22.20;99.90;;;;;;5025983;28;20476;-79
2023/09/19 00:20:38;;;;;;;0.00;0.00;;;22.10;99.90;;;;;;5033434;28;20413;-79
2023/09/19 00:23:08;;;;;;;0.00;0.00;;;22.10;99.90;;;;;;5002798;28;21086;-80
2023/09/19 00:25:38;;;;;;;0.00;0.00;;;22.10;99.90;;;;;;5012724;28;20432;-80
2023/09/19 00:28:07;;;;;;;0.00;0.00;;;22.10;99.90;;;;;;5029444;28;20407;-80
2023/09/19 00:30:38;;;;;;;0.00;0.00;;;22.10;99.90;;;;;;5029931;28;20411;-81
2023/09/19 00:33:07;;;;;;;0.00;0.00;;;22.00;99.90;;;;;;5011477;28;20407;-79
2023/09/19 00:35:44;;;;;;;0.00;0.00;;;22.10;99.90;;;;;;5012825;28;20919;-81
2023/09/19 00:38:26;;;;;;;0.00;0.00;;;22.10;99.90;;;;;;5011147;28;20417;-79
2023/09/19 00:41:00;;;;;;;0.00;0.00;;;22.10;99.90;;;;;;5007553;28;21029;-81
2023/09/19 00:43:27;;;;;;;0.00;0.00;;;22.10;99.90;;;;;;5010022;28;20557;-81
2023/09/19 00:45:56;;;;;;;0.00;0.00;;;22.10;99.90;;;;;;5003032;28;20424;-82
2023/09/19 00:48:28;;;;;;;0.00;0.00;;;22.10;99.90;;;;;;5003017;28;20481;-82
2023/09/19 00:50:59;;;;;;;0.00;0.00;;;22.10;99.90;;;;;;5016408;28;20714;-81
2023/09/19 00:53:27;;;;;;;0.00;0.00;;;22.10;99.90;;;;;;5012437;28;20406;-80
2023/09/19 00:55:53;;;;;;;0.00;0.00;;;22.10;99.90;;;;;;5028275;28;20423;-80
2023/09/19 00:58:20;;;;;;;0.00;0.00;;;22.10;99.90;;;;;;5003378;28;20420;-80
2023/09/19 01:00:51;;;;;;;0.00;0.00;;;22.00;99.90;;;;;;5009934;28;20449;-80
2023/09/19 01:03:18;;;;;;;0.00;0.00;;;22.00;99.90;;;;;;5020085;28;20416;-80
2023/09/19 01:05:45;;;;;;;0.00;0.00;;;22.00;99.90;;;;;;5004355;28;20423;-80
2023/09/19 01:08:11;;;;;;;0.00;0.00;;;22.00;99.90;;;;;;5042923;28;20421;-80
2023/09/19 01:10:55;;;;;;;0.00;0.00;;;22.00;99.90;;;;;;5015749;28;20402;-80
2023/09/19 01:14:07;;;;;;;0.00;0.00;;;22.00;99.90;;;;;;5009690;28;20418;-80
2023/09/19 01:17:06;;;;;;;0.00;0.00;;;22.00;99.90;;;;;;5016277;28;20451;-80
2023/09/19 01:20:15;;;;;;;0.00;0.00;;;22.00;99.90;;;;;;5004104;28;20423;-79
2023/09/19 01:23:03;;;;;;;0.00;0.00;;;22.00;99.90;;;;;;5002287;28;20503;-79
2023/09/19 01:26:10;;;;;;;0.00;0.00;;;21.90;99.90;;;;;;5016659;28;20493;-79
2023/09/19 01:29:19;;;;;;;0.00;0.00;;;21.90;99.90;;;;;;5006881;28;20414;-79
2023/09/19 01:31:47;;;;;;;0.00;0.00;;;21.90;99.90;;;;;;5019768;28;20450;-79
2023/09/19 01:34:13;;;;;;;0.00;0.00;;;21.90;99.90;;;;;;5026046;28;20410;-79
2023/09/19 01:36:39;;;;;;;0.00;0.00;;;21.90;99.90;;;;;;5010532;28;20403;-78
2023/09/19 01:39:10;;;;;;;0.00;0.00;;;21.90;99.90;;;;;;5028113;28;20505;-78
2023/09/19 01:42:19;;;;;;;0.00;0.00;;;21.90;99.90;;;;;;5025723;28;20506;-78
2023/09/19 01:45:04;;;;;;;0.00;0.00;;;22.00;99.90;;;;;;5017091;28;20411;-79
2023/09/19 01:47:43;;;;;;;0.00;0.00;;;22.00;99.90;;;;;;5014587;28;21105;-79
2023/09/19 01:50:26;;;;;;;0.00;0.00;;;22.00;99.90;;;;;;5010905;28;20435;-78
2023/09/19 01:53:04;;;;;;;0.00;0.00;;;22.00;99.90;;;;;;5030633;28;20479;-81
2023/09/19 01:55:40;;;;;;;0.00;0.00;;;21.90;99.90;;;;;;4993645;28;20418;-80
2023/09/19 01:58:21;;;;;;;0.00;0.00;;;21.90;99.90;;;;;;5022437;28;20516;-80
2023/09/19 02:00:53;;;;;;;0.00;0.00;;;22.00;99.90;;;;;;5008333;28;20422;-81
2023/09/19 02:03:22;;;;;;;0.00;0.00;;;22.00;99.90;;;;;;5002996;28;20424;-81
2023/09/19 02:05:51;;;;;;;0.00;0.00;;;22.00;99.90;;;;;;5008110;28;20403;-79
2023/09/19 02:08:23;;;;;;;0.00;0.00;;;22.00;99.90;;;;;;5026775;28;20419;-78
2023/09/19 02:10:50;;;;;;;0.00;0.00;;;21.90;99.90;;;;;;5027618;28;20407;-81
2023/09/19 02:13:22;;;;;;;0.00;0.00;;;21.90;99.90;;;;;;5027576;28;20498;-82
2023/09/19 02:16:10;;;;;;;0.00;0.00;;;21.90;99.90;;;;;;5024051;28;20972;-80
2023/09/19 02:18:37;;;;;;;0.00;0.00;;;21.90;99.90;;;;;;5004113;28;20419;-80
2023/09/19 02:21:04;;;;;;;0.00;0.00;;;22.00;99.90;;;;;;5005454;28;20409;-84
2023/09/19 02:23:31;;;;;;;0.00;0.00;;;21.90;99.90;;;;;;5031125;28;20907;-81
2023/09/19 02:25:58;;;;;;;0.00;0.00;;;22.00;99.90;;;;;;5011128;28;20793;-82
2023/09/19 02:28:24;;;;;;;0.00;0.00;;;21.90;99.90;;;;;;5024690;28;20468;-80
2023/09/19 02:30:52;;;;;;;0.00;0.00;;;21.90;99.90;;;;;;5006880;28;20462;-80
2023/09/19 02:33:32;;;;;;;0.00;0.00;;;21.90;99.90;;;;;;5015351;28;20558;-86
2023/09/19 02:36:00;;;;;;;0.00;0.00;;;21.90;99.90;;;;;;5016932;28;20415;-83
2023/09/19 02:38:27;;;;;;;0.00;0.00;;;21.80;99.90;;;;;;4998931;28;20570;-82
2023/09/19 02:40:55;;;;;;;0.00;0.00;;;21.80;99.90;;;;;;5032906;28;20424;-83
2023/09/19 02:43:22;;;;;;;0.00;0.00;;;21.90;99.90;;;;;;5027407;28;20437;-82
2023/09/19 02:45:49;;;;;;;0.00;0.00;;;21.90;99.90;;;;;;5018623;28;20418;-84
2023/09/19 02:48:18;;;;;;;0.00;0.00;;;21.80;99.90;;;;;;5021325;28;20462;-81
2023/09/19 02:50:45;;;;;;;0.00;0.00;;;21.80;99.90;;;;;;5018184;28;20407;-83
2023/09/19 02:53:13;;;;;;;0.00;0.00;;;21.80;99.90;;;;;;5006839;28;20416;-82
2023/09/19 02:55:40;;;;;;;0.00;0.00;;;21.90;99.90;;;;;;5008163;28;20403;-82
2023/09/19 02:58:14;;;;;;;0.00;0.00;;;21.90;99.90;;;;;;5025537;28;20410;-84
2023/09/19 03:00:47;;;;;;;0.00;0.00;;;21.90;99.90;;;;;;4986918;28;22438;-80
2023/09/19 03:03:15;;;;;;;0.00;0.00;;;21.90;99.90;;;;;;5004375;28;20784;-82
2023/09/19 03:05:46;;;;;;;0.00;0.00;;;21.90;99.90;;;;;;5007296;28;20417;-82
2023/09/19 03:08:16;;;;;;;0.00;0.00;;;21.90;99.90;;;;;;5008975;28;22237;-83
2023/09/19 03:10:45;;;;;;;0.00;0.00;;;21.90;99.90;;;;;;4978360;28;20421;-80
2023/09/19 03:13:12;;;;;;;0.00;0.00;;;21.90;99.90;;;;;;5031281;28;20987;-79
2023/09/19 03:15:46;;;;;;;0.00;0.00;;;21.90;99.90;;;;;;5030680;28;20406;-81
2023/09/19 03:18:13;;;;;;;0.00;0.00;;;21.90;99.90;;;;;;5038003;28;20539;-81
2023/09/19 03:20:39;;;;;;;0.00;0.00;;;21.90;99.90;;;;;;5002515;28;20420;-81
2023/09/19 03:23:06;;;;;;;0.00;0.00;;;21.90;99.90;;;;;;5018663;28;20958;-78
2023/09/19 03:25:39;;;;;;;0.00;0.00;;;21.90;99.90;;;;;;5004061;28;20413;-80
2023/09/19 03:28:06;;;;;;;0.00;0.00;;;21.90;99.90;;;;;;5004465;28;21331;-80
2023/09/19 03:30:34;;;;;;;0.00;0.00;;;21.90;99.90;;;;;;5007175;28;20411;-81
2023/09/19 03:33:00;;;;;;;0.00;0.00;;;21.90;99.90;;;;;;5004716;28;20417;-81
2023/09/19 03:35:26;;;;;;;0.00;0.00;;;21.90;99.90;;;;;;5007311;28;20413;-82
2023/09/19 03:37:52;;;;;;;0.00;0.00;;;21.90;99.90;;;;;;5010242;28;20415;-82
2023/09/19 03:40:21;;;;;;;0.00;0.00;;;21.80;99.90;;;;;;5009440;28;20488;-81
2023/09/19 03:42:48;;;;;;;0.00;0.00;;;21.80;99.90;;;;;;5035773;28;21007;-81
2023/09/19 03:45:15;;;;;;;0.00;0.00;;;21.70;99.90;;;;;;5007448;28;20496;-82
2023/09/19 03:47:42;;;;;;;0.00;0.00;;;21.70;99.90;;;;;;5014042;28;20539;-82
2023/09/19 03:50:10;;;;;;;0.00;0.00;;;21.70;99.90;;;;;;5013044;28;20411;-79
2023/09/19 03:52:37;;;;;;;0.00;0.00;;;21.60;99.90;;;;;;5011866;28;20416;-79
2023/09/19 03:55:06;;;;;;;0.00;0.00;;;21.60;99.90;;;;;;5038837;28;20411;-80
2023/09/19 03:57:36;;;;;;;0.00;0.00;;;21.60;99.90;;;;;;5008427;28;20512;-80
2023/09/19 04:00:11;;;;;;;0.00;0.00;;;21.50;99.90;;;;;;5024672;28;20565;-80
2023/09/19 04:02:39;;;;;;;0.00;0.00;;;21.50;99.90;;;;;;5028147;28;20420;-79
2023/09/19 04:05:06;;;;;;;0.00;0.00;;;21.60;99.90;;;;;;5012900;28;20936;-78
2023/09/19 04:07:34;;;;;;;0.00;0.00;;;21.60;99.90;;;;;;5022529;28;20405;-79
2023/09/19 04:10:01;;;;;;;0.00;0.00;;;21.60;99.90;;;;;;5029217;28;20472;-81
2023/09/19 04:12:27;;;;;;;0.00;0.00;;;21.60;99.90;;;;;;5009921;28;20399;-80
2023/09/19 04:14:54;;;;;;;0.00;0.00;;;21.60;99.90;;;;;;5042757;28;20493;-82
2023/09/19 04:17:20;;;;;;;0.00;0.00;;;21.60;99.90;;;;;;5010083;28;20774;-81
2023/09/19 04:19:46;;;;;;;0.00;0.00;;;21.60;99.90;;;;;;5040229;28;20449;-80
2023/09/19 04:22:12;;;;;;;0.00;0.00;;;21.60;99.90;;;;;;4998920;28;20409;-80
2023/09/19 04:24:39;;;;;;;0.00;0.00;;;21.70;99.90;;;;;;5022851;28;20411;-80
2023/09/19 04:27:07;;;;;;;0.00;0.00;;;21.70;99.90;;;;;;5015225;28;20406;-83
2023/09/19 04:29:33;;;;;;;0.00;0.00;;;21.70;99.90;;;;;;5010286;28;20912;-83
2023/09/19 04:31:59;;;;;;;0.00;0.00;;;21.70;99.90;;;;;;5015628;28;20449;-83
2023/09/19 04:34:26;;;;;;;0.00;0.00;;;21.80;99.90;;;;;;5012632;28;20724;-83
2023/09/19 04:36:52;;;;;;;0.00;0.00;;;21.80;99.90;;;;;;5016523;28;20538;-84
2023/09/19 04:39:19;;;;;;;0.00;0.00;;;21.80;99.90;;;;;;5013740;28;20419;-81
2023/09/19 04:41:45;;;;;;;0.00;0.00;;;21.80;99.90;;;;;;5011655;28;20427;-82
2023/09/19 04:44:13;;;;;;;0.00;0.00;;;21.80;99.90;;;;;;5011152;28;20922;-80
2023/09/19 04:46:39;;;;;;;0.00;0.00;;;21.80;99.90;;;;;;5034292;28;20492;-80
2023/09/19 04:49:06;;;;;;;0.00;0.00;;;21.70;99.90;;;;;;5032075;28;20467;-80
2023/09/19 04:51:34;;;;;;;0.00;0.00;;;21.70;99.90;;;;;;5024881;28;20530;-80
2023/09/19 04:54:01;;;;;;;0.00;0.00;;;21.70;99.90;;;;;;5011413;28;20427;-82
2023/09/19 04:56:28;;;;;;;0.00;0.00;;;21.70;99.90;;;;;;5000233;28;20439;-81
2023/09/19 04:58:55;;;;;;;0.00;0.00;;;21.70;99.90;;;;;;5012341;28;20434;-81
2023/09/19 05:01:22;;;;;;;0.00;0.00;;;21.80;99.90;;;;;;5003803;28;20418;-81
2023/09/19 05:03:52;;;;;;;0.00;0.00;;;21.80;99.90;;;;;;5025569;28;20947;-79
2023/09/19 05:06:22;;;;;;;0.00;0.00;;;21.80;99.90;;;;;;5027006;28;20422;-81
2023/09/19 05:08:53;;;;;;;0.00;0.00;;;21.80;99.90;;;;;;5046485;28;20469;-82
2023/09/19 05:11:22;;;;;;;0.00;0.00;;;21.80;99.90;;;;;;5011902;28;20467;-82
2023/09/19 05:13:52;;;;;;;0.00;0.00;;;21.90;99.90;;;;;;5011684;28;20399;-82
2023/09/19 05:16:20;;;;;;;0.00;0.00;;;21.90;99.90;;;;;;5029163;28;21192;-82
2023/09/19 05:18:46;;;;;;;0.00;0.00;;;22.00;99.90;;;;;;5013144;28;20407;-81
2023/09/19 05:21:12;;;;;;;0.00;0.00;;;22.00;99.90;;;;;;5012021;28;20950;-81
2023/09/19 05:23:39;;;;;;;0.00;0.00;;;22.10;99.90;;;;;;5012866;28;20409;-88
2023/09/19 05:26:05;;;;;;;0.00;0.00;;;22.10;99.90;;;;;;5000235;28;20427;-81
2023/09/19 05:28:34;;;;;;;0.00;0.00;;;22.20;99.90;;;;;;5018648;28;20865;-84
2023/09/19 05:31:04;;;;;;;0.00;0.00;;;22.20;99.90;;;;;;5011501;28;20518;-84
2023/09/19 05:33:31;;;;;;;0.00;0.00;;;22.30;99.90;;;;;;5018764;28;21275;-87
2023/09/19 05:35:57;;;;;;;0.00;0.00;;;22.30;99.90;;;;;;5008904;28;20726;-84
2023/09/19 05:38:27;;;;;;;0.00;0.00;;;22.40;99.90;;;;;;5025967;28;20421;-84
2023/09/19 05:40:53;;;;;;;0.00;0.00;;;22.40;99.90;;;;;;5007978;28;20409;-83
2023/09/19 05:43:20;;;;;;;0.00;0.00;;;22.40;99.90;;;;;;5009497;28;21168;-81
2023/09/19 05:45:46;;;;;;;0.00;0.00;;;22.50;99.90;;;;;;5027049;28;20418;-81
2023/09/19 05:48:15;;;;;;;0.00;0.00;;;22.60;99.90;;;;;;5011087;28;20494;-81
2023/09/19 05:50:42;;;;;;;0.00;0.00;;;22.60;99.90;;;;;;5029428;28;20427;-81
2023/09/19 05:53:12;;;;;;;0.00;0.00;;;22.70;99.90;;;;;;5000991;28;20925;-81
2023/09/19 05:55:38;;;;;;;0.00;0.00;;;22.80;99.90;;;;;;5005316;28;20416;-81
2023/09/19 05:58:04;;;;;;;0.00;0.00;;;22.80;99.90;;;;;;5007292;28;20410;-80
2023/09/19 06:00:31;;;;;;;0.00;0.00;;;22.90;99.90;;;;;;5036791;28;20415;-81
2023/09/19 06:02:59;;;;;;;0.00;0.00;;;23.00;99.90;;;;;;5004330;28;20419;-81
2023/09/19 06:05:27;;;;;;;0.00;0.00;;;23.00;99.90;;;;;;5020640;28;20518;-80
2023/09/19 06:07:54;;;;;;;0.00;0.00;;;23.10;99.90;;;;;;5015711;28;20424;-80
2023/09/19 06:10:20;;;;;;;0.00;0.00;;;23.20;99.90;;;;;;5007391;28;20419;-81
2023/09/19 06:12:48;;;;;;;0.00;0.00;;;23.30;99.90;;;;;;5011078;28;20411;-81
2023/09/19 06:15:18;;;;;;;0.00;0.00;;;23.40;99.90;;;;;;5005746;28;20407;-81
2023/09/19 06:17:56;;;;;;;0.00;0.00;;;23.50;99.90;;;;;;5022701;28;20403;-81
2023/09/19 06:20:25;;;;;;;0.00;0.00;;;23.60;99.90;;;;;;5008478;28;21279;-83
2023/09/19 06:22:54;;;;;;;0.00;0.00;;;23.60;99.90;;;;;;5006830;28;20983;-82
2023/09/19 06:25:21;;;;;;;0.00;0.00;;;23.60;99.90;;;;;;5012698;28;20955;-82
2023/09/19 06:27:55;;;;;;;0.00;0.00;;;23.70;99.90;;;;;;5007550;28;20403;-82
2023/09/19 06:30:24;;;;;;;0.00;0.00;;;23.80;99.90;;;;;;5022545;28;20992;-82
2023/09/19 06:32:56;;;;;;;0.00;0.00;;;23.80;99.90;;;;;;5023933;28;20478;-81
2023/09/19 06:35:22;;;;;;;0.10;0.10;;;23.90;99.90;;;;;;5018089;28;20413;-82
2023/09/19 06:37:50;;;;;;;0.00;0.00;;;24.00;99.90;;;;;;5017408;28;20475;-86
2023/09/19 06:40:17;;;;;;;0.00;0.00;;;24.00;99.90;;;;;;5006770;28;20414;-84
2023/09/19 06:42:53;;;;;;;0.00;0.00;;;24.00;99.90;;;;;;5029269;28;20496;-82
2023/09/19 06:45:21;;;;;;;0.00;0.00;;;24.10;99.90;;;;;;5024320;28;20521;-80
2023/09/19 06:47:51;;;;;;;0.00;0.00;;;24.10;99.90;;;;;;5006274;28;20512;-82
2023/09/19 06:50:20;;;;;;;0.00;0.00;;;24.10;99.90;;;;;;5007006;28;20473;-83
2023/09/19 06:52:51;;;;;;;0.00;0.00;;;24.20;99.90;;;;;;5024380;28;21256;-81
2023/09/19 06:55:19;;;;;;;0.00;0.00;;;24.20;99.90;;;;;;5003854;28;20445;-80
2023/09/19 06:57:47;;;;;;;0.00;0.00;;;24.30;99.90;;;;;;5035950;28;20912;-82
2023/09/19 07:00:15;;;;;;;0.00;0.00;;;24.40;99.90;;;;;;5007044;28;20461;-81
2023/09/19 07:02:58;;;;;;;0.00;0.00;;;24.40;99.90;;;;;;5006823;28;20413;-81
2023/09/19 07:05:25;;;;;;;0.00;0.00;;;24.50;99.90;;;;;;5020575;28;20415;-80
2023/09/19 07:08:03;;;;;;;0.00;0.00;;;24.60;99.90;;;;;;5024480;28;20438;-80
2023/09/19 07:10:30;;;;;;;0.00;0.00;;;24.70;99.90;;;;;;5015832;28;20415;-80
2023/09/19 07:13:09;;;;;;;0.00;0.00;;;24.70;99.90;;;;;;5001943;28;20488;-80
2023/09/19 07:15:38;;;;;;;0.00;0.00;;;24.70;99.90;;;;;;5009660;28;20550;-82
2023/09/19 07:18:06;;;;;;;0.00;0.00;;;24.80;99.90;;;;;;5004544;28;20769;-82
2023/09/19 07:20:34;;;;;;;0.00;0.00;;;24.90;99.90;;;;;;5020967;28;20900;-80
2023/09/19 07:23:01;;;;;;;0.10;0.10;;;24.90;99.90;;;;;;5023062;28;20411;-80
2023/09/19 07:25:31;;;;;;;0.00;0.00;;;25.00;99.90;;;;;;5024326;28;20946;-80
2023/09/19 07:28:02;;;;;;;0.00;0.00;;;25.00;99.90;;;;;;5011752;28;20415;-80
2023/09/19 07:30:28;;;;;;;0.00;0.00;;;25.10;99.90;;;;;;5014645;28;20407;-80
2023/09/19 07:32:55;;;;;;;0.10;0.10;;;25.20;99.90;;;;;;5010443;28;20415;-79
2023/09/19 07:35:21;;;;;;;0.00;0.00;;;25.30;99.90;;;;;;5024209;28;20416;-80
2023/09/19 07:37:49;;;;;;;0.00;0.00;;;25.30;99.90;;;;;;5027888;28;20808;-80
2023/09/19 07:40:20;;;;;;;0.00;0.00;;;25.30;99.90;;;;;;5026687;28;20422;-80
2023/09/19 07:42:47;;;;;;;0.00;0.00;;;25.40;99.90;;;;;;5009836;28;20747;-81
2023/09/19 07:45:19;;;;;;;0.00;0.00;;;25.40;99.90;;;;;;5032056;28;20512;-80
2023/09/19 07:47:47;;;;;;;0.00;0.00;;;25.40;99.90;;;;;;5013162;28;21142;-81
2023/09/19 07:50:16;;;;;;;0.00;0.00;;;25.50;99.90;;;;;;5012039;28;21135;-80
2023/09/19 07:52:45;;;;;;;0.00;0.00;;;25.50;99.90;;;;;;5012825;28;20420;-80
2023/09/19 07:55:16;;;;;;;0.00;0.00;;;25.60;99.90;;;;;;5012897;28;20905;-80
2023/09/19 07:57:43;;;;;;;0.00;0.00;;;25.60;99.90;;;;;;5027200;28;20398;-80
2023/09/19 08:00:11;;;;;;;0.00;0.00;;;25.70;99.90;;;;;;5007923;28;20423;-79
2023/09/19 08:02:38;;;;;;;0.00;0.00;;;25.80;99.90;;;;;;5012518;28;20434;-82
2023/09/19 08:05:06;;;;;;;0.00;0.00;;;25.90;99.90;;;;;;5014137;28;20753;-82
2023/09/19 08:07:42;;;;;;;0.10;0.10;;;26.00;99.90;;;;;;5019704;28;21051;-82
2023/09/19 08:10:15;;;;;;;0.00;0.00;;;26.00;99.90;;;;;;5031357;28;20536;-82
2023/09/19 08:12:46;;;;;;;0.10;0.10;;;26.10;99.90;;;;;;5025144;28;20775;-82
2023/09/19 08:15:22;;;;;;;0.07;0.07;;;26.10;99.90;;;;;;5043492;28;20545;-82
2023/09/19 08:17:50;;;;;;;0.00;0.00;;;26.10;99.90;;;;;;5009643;28;20412;-81
2023/09/19 08:20:17;;;;;;;0.00;0.00;;;26.10;99.90;;;;;;5009049;28;20613;-84
2023/09/19 08:22:49;;;;;;;0.05;0.05;;;26.30;99.90;;;;;;5022986;28;20410;-82
2023/09/19 08:25:19;;;;;;;0.10;0.10;;;26.30;99.90;;;;;;5023757;28;20495;-85
2023/09/19 08:27:48;;;;;;;0.00;0.00;;;26.30;99.90;;;;;;5005393;28;20472;-84
2023/09/19 08:30:16;;;;;;;0.00;0.00;;;26.30;99.90;;;;;;5003179;28;20503;-84
2023/09/19 08:32:43;;;;;;;0.00;0.00;;;26.30;99.90;;;;;;5024433;28;20407;-83
2023/09/19 08:35:10;;;;;;;0.00;0.00;;;26.30;99.90;;;;;;5012089;28;20490;-83
2023/09/19 08:37:38;;;;;;;0.00;0.00;;;26.30;99.90;;;;;;5008506;28;20431;-83
2023/09/19 08:40:12;;;;;;;0.00;0.00;;;26.40;99.90;;;;;;5026866;28;20490;-83
2023/09/19 08:43:08;;;;;;;0.00;0.00;;;26.50;99.90;;;;;;5023691;28;20419;-84
2023/09/19 08:45:36;;;;;;;0.10;0.10;;;26.60;99.90;;;;;;4996105;28;20535;-83
2023/09/19 08:48:30;;;;;;;0.00;0.00;;;26.60;99.90;;;;;;5024139;28;20425;-82
2023/09/19 08:51:18;;;;;;;0.00;0.00;;;26.70;99.90;;;;;;5009632;28;20433;-82
2023/09/19 08:54:09;;;;;;;0.08;0.08;;;26.70;99.90;;;;;;5005136;28;20490;-81
2023/09/19 08:56:39;;;;;;;0.05;0.05;;;26.80;99.90;;;;;;5025714;28;20477;-81
2023/09/19 08:59:13;;;;;;;0.10;0.10;;;26.80;99.90;;;;;;5006649;28;20413;-82
2023/09/19 09:01:41;;;;;;;0.03;0.03;;;26.90;99.90;;;;;;5008205;28;20447;-82
2023/09/19 09:04:12;;;;;;;0.00;0.00;;;27.00;99.90;;;;;;5008295;28;20424;-82
2023/09/19 09:06:41;;;;;;;0.10;0.10;;;27.00;99.90;;;;;;5004863;28;20418;-82
2023/09/19 09:09:09;;;;;;;0.10;0.10;;;27.00;99.90;;;;;;5038484;28;20511;-81
2023/09/19 09:11:39;;;;;;;0.00;0.00;;;27.10;99.90;;;;;;5021571;28;20506;-82
2023/09/19 09:14:07;;;;;;;0.10;0.10;;;27.20;99.90;;;;;;5009931;28;20494;-80
2023/09/19 09:16:34;;;;;;;0.00;0.00;;;27.30;99.90;;;;;;5010854;28;20509;-78
2023/09/19 09:19:01;;;;;;;0.00;0.00;;;27.40;99.90;;;;;;5026178;28;20772;-80
2023/09/19 09:21:36;;;;;;;0.00;0.00;;;27.40;99.90;;;;;;5031047;28;20418;-80
2023/09/19 09:24:33;;;;;;;0.05;0.05;;;27.50;99.90;;;;;;5024363;28;20459;-80
2023/09/19 09:27:02;;;;;;;0.00;0.00;;;27.70;99.90;;;;;;5023741;28;22035;-80
2023/09/19 09:29:47;;;;;;;0.00;0.00;;;27.70;99.90;;;;;;5011016;28;20411;-80
2023/09/19 09:32:33;;;;;;;0.10;0.10;;;27.80;99.90;;;;;;5020278;28;20416;-80
2023/09/19 09:35:02;;;;;;;0.03;0.03;;;27.90;99.90;;;;;;5004844;28;20403;-81
2023/09/19 09:37:31;;;;;;;0.00;0.00;;;28.10;99.90;;;;;;5037765;28;20423;-79
2023/09/19 09:42:39;;;;;;;0.10;0.10;;;28.20;99.90;;;;;;5030293;28;20416;-78
2023/09/19 09:48:13;;;;;;;0.10;0.10;;;28.40;99.90;;;;;;5022111;28;20418;-78
2023/09/19 09:53:27;;;;;;;0.05;0.05;;;28.60;99.90;;;;;;5021396;28;20439;-77
2023/09/19 09:56:09;;;;;;;0.00;0.00;;;28.70;99.90;;;;;;5024333;28;21117;-77
2023/09/19 09:58:59;;;;;;;0.10;0.10;;;28.90;99.90;;;;;;5004228;28;20524;-77
2023/09/19 10:01:26;;;;;;;0.10;0.10;;;29.00;99.90;;;;;;5005386;28;20423;-78
2023/09/19 10:04:00;;;;;;;0.10;0.10;;;29.00;99.90;;;;;;5037120;28;20415;-77
2023/09/19 10:06:27;;;;;;;0.10;0.10;;;29.10;99.90;;;;;;5018316;28;20419;-77
2023/09/19 10:09:14;;;;;;;0.10;0.10;;;29.10;99.90;;;;;;5020548;28;20496;-78
2023/09/19 10:11:58;;;;;;;0.10;0.10;;;29.30;99.90;;;;;;5023699;28;20407;-78
2023/09/19 10:14:31;;;;;;;0.03;0.03;;;29.30;99.90;;;;;;5039613;28;20470;-78
2023/09/19 10:17:04;;;;;;;0.08;0.08;;;29.40;99.90;;;;;;5001670;28;21067;-80
2023/09/19 10:20:05;;;;;;;0.10;0.10;;;29.40;99.90;;;;;;4977981;28;21784;-79
2023/09/19 10:22:35;;;;;;;0.10;0.10;;;29.30;99.90;;;;;;5033027;28;20409;-79
2023/09/19 10:25:07;;;;;;;0.08;0.08;;;29.30;99.90;;;;;;5039204;28;20407;-81
2023/09/19 10:27:37;;;;;;;0.00;0.00;;;29.40;99.90;;;;;;5022534;28;20398;-83
2023/09/19 10:30:09;;;;;;;0.10;0.10;;;29.30;99.90;;;;;;5007417;28;20488;-80
2023/09/19 10:32:39;;;;;;;0.10;0.10;;;29.20;99.90;;;;;;5007924;28;20601;-80
2023/09/19 10:35:08;;;;;;;0.10;0.10;;;29.10;99.90;;;;;;5007347;28;21856;-79
2023/09/19 10:37:37;;;;;;;0.10;0.10;;;29.20;99.90;;;;;;5006429;28;20542;-82
2023/09/19 10:40:11;;;;;;;0.10;0.10;;;29.20;99.90;;;;;;5023045;28;21510;-85
2023/09/19 10:42:42;;;;;;;0.10;0.10;;;29.20;99.90;;;;;;5025634;28;20438;-80
2023/09/19 10:45:15;;;;;;;0.10;0.10;;;29.20;99.90;;;;;;5008735;28;20776;-80
2023/09/19 10:47:42;;;;;;;0.10;0.10;;;29.20;99.90;;;;;;5008337;28;20403;-82
2023/09/19 10:50:21;;;;;;;0.10;0.10;;;29.20;99.90;;;;;;5008416;28;22420;-81
2023/09/19 10:52:58;;;;;;;0.10;0.10;;;29.20;99.90;;;;;;5008960;28;20430;-82
2023/09/19 10:55:28;;;;;;;0.10;0.10;;;29.30;99.90;;;;;;5024114;28;20414;-81
2023/09/19 10:57:57;;;;;;;0.10;0.10;;;29.30;99.90;;;;;;5025256;28;20419;-82
2023/09/19 11:00:27;;;;;;;0.10;0.10;;;29.30;99.90;;;;;;5026468;28;20407;-81
2023/09/19 11:03:11;;;;;;;0.10;0.10;;;29.30;99.90;;;;;;5010915;28;20403;-82
2023/09/19 11:05:41;;;;;;;0.10;0.10;;;29.30;99.90;;;;;;5012221;28;20532;-83
2023/09/19 11:08:11;;;;;;;0.08;0.08;;;29.30;99.90;;;;;;5027248;28;20423;-82
2023/09/19 11:10:51;;;;;;;0.10;0.10;;;29.40;99.90;;;;;;5013324;28;20465;-82
2023/09/19 11:13:32;;;;;;;0.10;0.10;;;29.40;99.90;;;;;;5027321;28;20403;-82
2023/09/19 11:15:58;;;;;;;0.10;0.10;;;29.30;99.90;;;;;;5010489;28;20418;-80
2023/09/19 11:18:43;;;;;;;0.10;0.10;;;29.30;99.90;;;;;;5015251;28;20413;-79
2023/09/19 11:21:29;;;;;;;0.10;0.10;;;29.30;99.90;;;;;;5005565;28;20961;-79
2023/09/19 11:24:22;;;;;;;0.10;0.10;;;29.30;99.90;;;;;;5022203;28;20833;-79
2023/09/19 18:23:11;;;;;;;0.00;0.00;;;24.20;99.90;;;;;;5097445;27;20764;-72
2023/09/19 18:25:40;;;;;;;0.00;0.00;;;24.10;99.90;;;;;;5085658;28;20836;-72
2023/09/19 18:28:07;;;;;;;0.00;0.00;;;24.20;99.90;;;;;;5092618;28;20922;-72
2023/09/19 18:30:34;;;;;;;0.00;0.00;;;24.20;99.90;;;;;;5078067;28;20263;-72
2023/09/19 18:33:01;;;;;;;0.00;0.00;;;24.20;99.90;;;;;;5081557;28;20392;-72
2023/09/19 18:35:30;;;;;;;0.00;0.00;;;24.20;99.90;;;;;;5080556;28;20228;-73
2023/09/19 18:37:58;;;;;;;0.00;0.00;;;24.30;99.90;;;;;;5102216;28;20332;-77
2023/09/19 18:40:24;;;;;;;0.00;0.00;;;24.30;99.90;;;;;;5099218;28;20222;-77
2023/09/19 18:42:52;;;;;;;0.00;0.00;;;24.30;99.90;;;;;;5097300;28;20225;-77
2023/09/19 18:45:18;;;;;;;0.00;0.00;;;24.30;99.90;;;;;;5067450;28;20202;-77
2023/09/19 18:47:45;;;;;;;0.00;0.00;;;24.30;99.90;;;;;;5063305;28;20182;-77
2023/09/19 18:50:12;;;;;;;0.00;0.00;;;24.30;99.90;;;;;;5079410;28;20182;-77
2023/09/19 18:52:39;;;;;;;0.00;0.00;;;24.30;99.90;;;;;;5077825;28;20273;-77
2023/09/19 18:55:10;;;;;;;0.00;0.00;;;24.30;99.90;;;;;;5089667;28;20684;-76
2023/09/19 18:57:39;;;;;;;0.00;0.00;;;24.20;99.90;;;;;;5102043;28;20209;-75
2023/09/19 19:00:10;;;;;;;0.00;0.00;;;24.30;99.90;;;;;;5082459;28;20205;-76
2023/09/19 19:02:39;;;;;;;0.00;0.00;;;24.30;99.90;;;;;;5074905;28;20203;-75
2023/09/19 19:05:09;;;;;;;0.00;0.00;;;24.20;99.90;;;;;;5081477;28;20664;-76
2023/09/19 19:07:38;;;;;;;0.00;0.00;;;24.20;99.90;;;;;;5082773;28;20654;-77
2023/09/19 19:10:07;;;;;;;0.00;0.00;;;24.20;99.90;;;;;;5099002;28;20194;-76
2023/09/19 19:12:35;;;;;;;0.00;0.00;;;24.10;99.90;;;;;;5081531;28;20715;-76
2023/09/19 19:15:03;;;;;;;0.00;0.00;;;24.10;99.90;;;;;;5103300;28;20198;-76
2023/09/19 19:17:33;;;;;;;0.00;0.00;;;24.10;99.90;;;;;;5085426;28;20215;-76
2023/09/19 19:19:59;;;;;;;0.00;0.00;;;24.10;99.90;;;;;;5110247;28;20281;-76
2023/09/19 19:22:28;;;;;;;0.00;0.00;;;24.10;99.90;;;;;;5083963;28;20249;-75
2023/09/19 19:24:55;;;;;;;0.00;0.00;;;24.10;99.90;;;;;;5091299;28;20317;-76
2023/09/19 19:27:22;;;;;;;0.00;0.00;;;24.10;99.90;;;;;;5080659;28;20185;-76
2023/09/19 19:29:49;;;;;;;0.00;0.00;;;24.10;99.90;;;;;;5080903;28;20237;-76
2023/09/19 19:32:15;;;;;;;0.00;0.00;;;24.10;99.90;;;;;;5078291;28;20824;-76
2023/09/19 19:34:41;;;;;;;0.00;0.00;;;24.00;99.90;;;;;;5045103;28;20274;-75
2023/09/19 19:37:11;;;;;;;0.00;0.00;;;24.00;99.90;;;;;;5065477;28;20632;-76
2023/09/19 19:39:39;;;;;;;0.00;0.00;;;24.00;99.90;;;;;;5064959;28;20191;-76
2023/09/19 19:42:06;;;;;;;0.00;0.00;;;24.00;99.90;;;;;;5036082;28;20526;-75
2023/09/19 19:44:33;;;;;;;0.00;0.00;;;24.00;99.90;;;;;;5063836;28;20754;-75
2023/09/19 19:47:00;;;;;;;0.00;0.00;;;23.90;99.90;;;;;;5080037;28;20247;-75
2023/09/19 19:49:26;;;;;;;0.00;0.00;;;23.90;99.90;;;;;;5070826;28;20213;-75
2023/09/19 19:51:54;;;;;;;0.00;0.00;;;23.90;99.90;;;;;;5066610;28;20187;-78
2023/09/19 19:54:22;;;;;;;0.00;0.00;;;23.90;99.90;;;;;;5076242;28;20191;-77
2023/09/19 19:56:48;;;;;;;0.00;0.00;;;23.90;99.90;;;;;;5052092;28;20191;-77
2023/09/19 19:59:17;;;;;;;0.00;0.00;;;23.80;99.90;;;;;;5044303;28;20282;-77
2023/09/19 20:01:43;;;;;;;0.00;0.00;;;23.80;99.90;;;;;;5053230;28;20346;-74
2023/09/19 20:04:10;;;;;;;0.00;0.00;;;23.80;99.90;;;;;;5030963;28;20194;-73
2023/09/19 20:06:36;;;;;;;0.00;0.00;;;23.80;99.90;;;;;;5051503;28;20215;-76
2023/09/19 20:09:04;;;;;;;0.00;0.00;;;23.80;99.90;;;;;;5073783;28;20194;-77
2023/09/19 20:11:31;;;;;;;0.00;0.00;;;23.80;99.90;;;;;;5051569;28;20749;-76